sensor_id;sensor_type;location;lat;lon;timestamp;P1;durP1;ratioP1;P2;durP2;ratioP2
80307;SDS011;69616;43.522;1.348;2024-01-15T00:02:07;13.73;;;4.60;;
80307;SDS011;69616;43.522;1.348;2024-01-15T00:04:37;13.43;;;4.30;;
80307;SDS011;69616;43.522;1.348;2024-01-15T00:07:03;11.52;;;4.80;;
80307;SDS011;69616;43.522;1.348;2024-01-15T00:09:29;11.53;;;5.20;;
80307;SDS011;69616;43.522;1.348;2024-01-15T00:11:54;14.57;;;5.13;;
80307;SDS011;69616;43.522;1.348;2024-01-15T00:14:20;14.52;;;4.70;;
80307;SDS011;69616;43.522;1.348;2024-01-15T00:16:45;15.03;;;4.80;;
80307;SDS011;69616;43.522;1.348;2024-01-15T00:19:11;15.27;;;5.25;;
80307;SDS011;69616;43.522;1.348;2024-01-15T00:21:37;13.70;;;4.70;;
80307;SDS011;69616;43.522;1.348;2024-01-15T00:24:02;16.10;;;4.77;;
80307;SDS011;69616;43.522;1.348;2024-01-15T00:26:27;15.05;;;4.68;;
80307;SDS011;69616;43.522;1.348;2024-01-15T00:28:53;13.63;;;4.20;;
80307;SDS011;69616;43.522;1.348;2024-01-15T00:31:18;14.67;;;4.70;;
80307;SDS011;69616;43.522;1.348;2024-01-15T00:33:44;12.13;;;4.37;;
80307;SDS011;69616;43.522;1.348;2024-01-15T00:36:09;13.43;;;4.83;;
80307;SDS011;69616;43.522;1.348;2024-01-15T00:38:34;12.85;;;4.68;;
80307;SDS011;69616;43.522;1.348;2024-01-15T00:41:00;16.63;;;5.10;;
80307;SDS011;69616;43.522;1.348;2024-01-15T00:43:25;12.07;;;4.40;;
80307;SDS011;69616;43.522;1.348;2024-01-15T00:45:50;11.57;;;4.40;;
80307;SDS011;69616;43.522;1.348;2024-01-15T00:48:16;15.93;;;5.53;;
80307;SDS011;69616;43.522;1.348;2024-01-15T00:50:41;10.15;;;4.80;;
80307;SDS011;69616;43.522;1.348;2024-01-15T00:53:07;16.90;;;7.33;;
80307;SDS011;69616;43.522;1.348;2024-01-15T00:55:32;15.47;;;6.40;;
80307;SDS011;69616;43.522;1.348;2024-01-15T00:57:57;12.80;;;5.47;;
80307;SDS011;69616;43.522;1.348;2024-01-15T01:00:23;12.07;;;5.10;;
80307;SDS011;69616;43.522;1.348;2024-01-15T01:02:48;12.30;;;5.03;;
80307;SDS011;69616;43.522;1.348;2024-01-15T01:05:13;13.43;;;5.30;;
80307;SDS011;69616;43.522;1.348;2024-01-15T01:07:39;15.67;;;6.10;;
80307;SDS011;69616;43.522;1.348;2024-01-15T01:10:04;13.73;;;5.97;;
80307;SDS011;69616;43.522;1.348;2024-01-15T01:12:30;13.75;;;6.15;;
80307;SDS011;69616;43.522;1.348;2024-01-15T01:14:55;13.60;;;5.20;;
80307;SDS011;69616;43.522;1.348;2024-01-15T01:17:21;13.07;;;5.38;;
80307;SDS011;69616;43.522;1.348;2024-01-15T01:19:47;14.17;;;5.60;;
80307;SDS011;69616;43.522;1.348;2024-01-15T01:22:12;13.93;;;5.47;;
80307;SDS011;69616;43.522;1.348;2024-01-15T01:24:38;12.00;;;5.70;;
80307;SDS011;69616;43.522;1.348;2024-01-15T01:27:03;18.23;;;5.83;;
80307;SDS011;69616;43.522;1.348;2024-01-15T01:29:29;12.10;;;5.40;;
80307;SDS011;69616;43.522;1.348;2024-01-15T01:31:54;13.50;;;5.10;;
80307;SDS011;69616;43.522;1.348;2024-01-15T01:34:21;13.40;;;5.13;;
80307;SDS011;69616;43.522;1.348;2024-01-15T01:36:46;14.70;;;5.22;;
80307;SDS011;69616;43.522;1.348;2024-01-15T01:39:12;13.70;;;5.50;;
80307;SDS011;69616;43.522;1.348;2024-01-15T01:41:38;11.17;;;4.93;;
80307;SDS011;69616;43.522;1.348;2024-01-15T01:44:04;12.80;;;5.57;;
80307;SDS011;69616;43.522;1.348;2024-01-15T01:46:29;10.90;;;5.00;;
80307;SDS011;69616;43.522;1.348;2024-01-15T01:48:56;12.45;;;5.38;;
80307;SDS011;69616;43.522;1.348;2024-01-15T01:51:22;12.88;;;4.75;;
80307;SDS011;69616;43.522;1.348;2024-01-15T01:53:48;14.30;;;5.53;;
80307;SDS011;69616;43.522;1.348;2024-01-15T01:56:15;12.63;;;4.80;;
80307;SDS011;69616;43.522;1.348;2024-01-15T01:58:40;13.55;;;5.40;;
80307;SDS011;69616;43.522;1.348;2024-01-15T02:01:06;11.53;;;5.23;;
80307;SDS011;69616;43.522;1.348;2024-01-15T02:03:32;11.07;;;4.90;;
80307;SDS011;69616;43.522;1.348;2024-01-15T02:05:59;14.77;;;5.60;;
80307;SDS011;69616;43.522;1.348;2024-01-15T02:08:25;12.00;;;5.77;;
80307;SDS011;69616;43.522;1.348;2024-01-15T02:10:51;12.52;;;5.15;;
80307;SDS011;69616;43.522;1.348;2024-01-15T02:13:17;14.10;;;6.07;;
80307;SDS011;69616;43.522;1.348;2024-01-15T02:15:43;11.32;;;5.53;;
80307;SDS011;69616;43.522;1.348;2024-01-15T02:18:08;13.67;;;5.60;;
80307;SDS011;69616;43.522;1.348;2024-01-15T02:20:34;12.48;;;5.38;;
80307;SDS011;69616;43.522;1.348;2024-01-15T02:23:06;11.30;;;5.57;;
80307;SDS011;69616;43.522;1.348;2024-01-15T02:25:35;12.82;;;6.15;;
80307;SDS011;69616;43.522;1.348;2024-01-15T02:28:11;16.15;;;6.43;;
80307;SDS011;69616;43.522;1.348;2024-01-15T02:30:38;16.35;;;6.97;;
80307;SDS011;69616;43.522;1.348;2024-01-15T02:33:04;15.95;;;7.00;;
80307;SDS011;69616;43.522;1.348;2024-01-15T02:35:30;15.47;;;7.07;;
80307;SDS011;69616;43.522;1.348;2024-01-15T02:37:56;15.93;;;8.13;;
80307;SDS011;69616;43.522;1.348;2024-01-15T02:40:21;20.43;;;9.77;;
80307;SDS011;69616;43.522;1.348;2024-01-15T02:42:46;18.93;;;8.53;;
80307;SDS011;69616;43.522;1.348;2024-01-15T02:45:12;18.83;;;8.53;;
80307;SDS011;69616;43.522;1.348;2024-01-15T02:47:37;18.93;;;8.40;;
80307;SDS011;69616;43.522;1.348;2024-01-15T02:50:03;17.83;;;8.60;;
80307;SDS011;69616;43.522;1.348;2024-01-15T02:52:28;17.73;;;9.37;;
80307;SDS011;69616;43.522;1.348;2024-01-15T02:54:54;22.02;;;9.35;;
80307;SDS011;69616;43.522;1.348;2024-01-15T02:57:19;17.63;;;8.40;;
80307;SDS011;69616;43.522;1.348;2024-01-15T02:59:47;18.88;;;8.68;;
80307;SDS011;69616;43.522;1.348;2024-01-15T03:02:15;18.97;;;8.67;;
80307;SDS011;69616;43.522;1.348;2024-01-15T03:04:44;16.50;;;8.80;;
80307;SDS011;69616;43.522;1.348;2024-01-15T03:07:09;18.80;;;8.87;;
80307;SDS011;69616;43.522;1.348;2024-01-15T03:09:35;18.90;;;9.00;;
80307;SDS011;69616;43.522;1.348;2024-01-15T03:12:00;19.07;;;9.13;;
80307;SDS011;69616;43.522;1.348;2024-01-15T03:14:26;18.97;;;9.30;;
80307;SDS011;69616;43.522;1.348;2024-01-15T03:16:52;18.73;;;8.60;;
80307;SDS011;69616;43.522;1.348;2024-01-15T03:19:18;20.92;;;8.25;;
80307;SDS011;69616;43.522;1.348;2024-01-15T03:21:43;16.63;;;8.23;;
80307;SDS011;69616;43.522;1.348;2024-01-15T03:24:08;16.97;;;8.93;;
80307;SDS011;69616;43.522;1.348;2024-01-15T03:26:34;20.70;;;9.90;;
80307;SDS011;69616;43.522;1.348;2024-01-15T03:28:59;23.30;;;10.13;;
80307;SDS011;69616;43.522;1.348;2024-01-15T03:31:25;23.20;;;11.10;;
80307;SDS011;69616;43.522;1.348;2024-01-15T03:33:50;24.07;;;10.77;;
80307;SDS011;69616;43.522;1.348;2024-01-15T03:36:15;22.20;;;11.53;;
80307;SDS011;69616;43.522;1.348;2024-01-15T03:38:41;22.47;;;10.17;;
80307;SDS011;69616;43.522;1.348;2024-01-15T03:41:07;18.15;;;9.52;;
80307;SDS011;69616;43.522;1.348;2024-01-15T03:43:32;21.05;;;9.90;;
80307;SDS011;69616;43.522;1.348;2024-01-15T03:45:58;20.00;;;10.07;;
80307;SDS011;69616;43.522;1.348;2024-01-15T03:48:23;19.33;;;9.67;;
80307;SDS011;69616;43.522;1.348;2024-01-15T03:50:49;17.07;;;8.87;;
80307;SDS011;69616;43.522;1.348;2024-01-15T03:53:14;18.80;;;9.00;;
80307;SDS011;69616;43.522;1.348;2024-01-15T03:55:39;16.50;;;8.33;;
80307;SDS011;69616;43.522;1.348;2024-01-15T03:58:05;17.70;;;8.57;;
80307;SDS011;69616;43.522;1.348;2024-01-15T04:00:30;16.37;;;8.50;;
80307;SDS011;69616;43.522;1.348;2024-01-15T04:02:56;14.83;;;8.37;;
80307;SDS011;69616;43.522;1.348;2024-01-15T04:05:21;18.27;;;8.93;;
80307;SDS011;69616;43.522;1.348;2024-01-15T04:07:46;19.50;;;9.47;;
80307;SDS011;69616;43.522;1.348;2024-01-15T04:10:12;20.90;;;9.83;;
80307;SDS011;69616;43.522;1.348;2024-01-15T04:12:37;19.83;;;9.33;;
80307;SDS011;69616;43.522;1.348;2024-01-15T04:15:03;20.40;;;9.77;;
80307;SDS011;69616;43.522;1.348;2024-01-15T04:17:28;17.85;;;9.18;;
80307;SDS011;69616;43.522;1.348;2024-01-15T04:19:54;17.67;;;8.83;;
80307;SDS011;69616;43.522;1.348;2024-01-15T04:22:20;16.73;;;8.77;;
80307;SDS011;69616;43.522;1.348;2024-01-15T04:24:45;17.17;;;9.33;;
80307;SDS011;69616;43.522;1.348;2024-01-15T04:27:10;18.23;;;8.80;;
80307;SDS011;69616;43.522;1.348;2024-01-15T04:29:39;17.75;;;9.35;;
80307;SDS011;69616;43.522;1.348;2024-01-15T04:32:05;17.03;;;9.30;;
80307;SDS011;69616;43.522;1.348;2024-01-15T04:34:30;17.70;;;9.40;;
80307;SDS011;69616;43.522;1.348;2024-01-15T04:36:56;16.23;;;8.57;;
80307;SDS011;69616;43.522;1.348;2024-01-15T04:39:22;19.00;;;9.07;;
80307;SDS011;69616;43.522;1.348;2024-01-15T04:41:47;16.30;;;8.13;;
80307;SDS011;69616;43.522;1.348;2024-01-15T04:44:13;17.08;;;8.52;;
80307;SDS011;69616;43.522;1.348;2024-01-15T04:46:38;18.60;;;8.43;;
80307;SDS011;69616;43.522;1.348;2024-01-15T04:49:04;19.20;;;9.00;;
80307;SDS011;69616;43.522;1.348;2024-01-15T04:51:29;18.00;;;9.23;;
80307;SDS011;69616;43.522;1.348;2024-01-15T04:53:54;20.77;;;9.47;;
80307;SDS011;69616;43.522;1.348;2024-01-15T04:56:20;16.97;;;8.33;;
80307;SDS011;69616;43.522;1.348;2024-01-15T04:58:45;20.47;;;9.13;;
80307;SDS011;69616;43.522;1.348;2024-01-15T05:01:11;18.58;;;9.43;;
80307;SDS011;69616;43.522;1.348;2024-01-15T05:03:37;17.10;;;8.50;;
80307;SDS011;69616;43.522;1.348;2024-01-15T05:06:02;19.43;;;8.40;;
80307;SDS011;69616;43.522;1.348;2024-01-15T05:08:28;18.60;;;9.05;;
80307;SDS011;69616;43.522;1.348;2024-01-15T05:10:53;17.93;;;9.53;;
80307;SDS011;69616;43.522;1.348;2024-01-15T05:13:18;18.03;;;9.47;;
80307;SDS011;69616;43.522;1.348;2024-01-15T05:15:44;22.80;;;10.43;;
80307;SDS011;69616;43.522;1.348;2024-01-15T05:18:09;20.67;;;10.70;;
80307;SDS011;69616;43.522;1.348;2024-01-15T05:20:35;21.17;;;11.40;;
80307;SDS011;69616;43.522;1.348;2024-01-15T05:23:00;20.30;;;10.77;;
80307;SDS011;69616;43.522;1.348;2024-01-15T05:25:25;23.90;;;12.07;;
80307;SDS011;69616;43.522;1.348;2024-01-15T05:27:51;19.52;;;10.55;;
80307;SDS011;69616;43.522;1.348;2024-01-15T05:30:16;21.27;;;9.70;;
80307;SDS011;69616;43.522;1.348;2024-01-15T05:32:42;22.40;;;9.80;;
80307;SDS011;69616;43.522;1.348;2024-01-15T05:35:07;22.27;;;10.83;;
80307;SDS011;69616;43.522;1.348;2024-01-15T05:37:32;23.97;;;11.27;;
80307;SDS011;69616;43.522;1.348;2024-01-15T05:39:58;26.15;;;11.32;;
80307;SDS011;69616;43.522;1.348;2024-01-15T05:42:23;20.07;;;11.13;;
80307;SDS011;69616;43.522;1.348;2024-01-15T05:44:49;20.77;;;11.67;;
80307;SDS011;69616;43.522;1.348;2024-01-15T05:47:14;18.60;;;9.97;;
80307;SDS011;69616;43.522;1.348;2024-01-15T05:49:40;23.40;;;11.38;;
80307;SDS011;69616;43.522;1.348;2024-01-15T05:52:05;23.53;;;10.90;;
80307;SDS011;69616;43.522;1.348;2024-01-15T05:54:31;20.43;;;10.83;;
80307;SDS011;69616;43.522;1.348;2024-01-15T05:56:56;26.40;;;11.88;;
80307;SDS011;69616;43.522;1.348;2024-01-15T05:59:22;23.10;;;11.37;;
80307;SDS011;69616;43.522;1.348;2024-01-15T06:01:47;21.07;;;10.17;;
80307;SDS011;69616;43.522;1.348;2024-01-15T06:04:13;23.98;;;12.32;;
80307;SDS011;69616;43.522;1.348;2024-01-15T06:06:38;26.57;;;12.47;;
80307;SDS011;69616;43.522;1.348;2024-01-15T06:09:03;22.37;;;11.60;;
80307;SDS011;69616;43.522;1.348;2024-01-15T06:11:33;32.80;;;15.00;;
80307;SDS011;69616;43.522;1.348;2024-01-15T06:13:59;27.60;;;12.38;;
80307;SDS011;69616;43.522;1.348;2024-01-15T06:16:25;31.60;;;14.23;;
80307;SDS011;69616;43.522;1.348;2024-01-15T06:18:51;26.85;;;12.73;;
80307;SDS011;69616;43.522;1.348;2024-01-15T06:21:17;27.77;;;13.10;;
80307;SDS011;69616;43.522;1.348;2024-01-15T06:23:42;25.55;;;11.75;;
80307;SDS011;69616;43.522;1.348;2024-01-15T06:26:08;25.47;;;13.20;;
80307;SDS011;69616;43.522;1.348;2024-01-15T06:28:36;22.83;;;11.10;;
80307;SDS011;69616;43.522;1.348;2024-01-15T06:31:08;23.08;;;11.45;;
80307;SDS011;69616;43.522;1.348;2024-01-15T06:33:34;23.00;;;12.10;;
80307;SDS011;69616;43.522;1.348;2024-01-15T06:35:59;23.87;;;11.83;;
80307;SDS011;69616;43.522;1.348;2024-01-15T06:38:24;21.23;;;10.47;;
80307;SDS011;69616;43.522;1.348;2024-01-15T06:40:50;19.87;;;10.67;;
80307;SDS011;69616;43.522;1.348;2024-01-15T06:43:16;22.13;;;10.55;;
80307;SDS011;69616;43.522;1.348;2024-01-15T06:45:42;21.25;;;9.95;;
80307;SDS011;69616;43.522;1.348;2024-01-15T06:48:11;19.93;;;11.57;;
80307;SDS011;69616;43.522;1.348;2024-01-15T06:50:39;26.23;;;13.63;;
80307;SDS011;69616;43.522;1.348;2024-01-15T06:53:05;23.30;;;11.52;;
80307;SDS011;69616;43.522;1.348;2024-01-15T06:55:30;23.07;;;11.87;;
80307;SDS011;69616;43.522;1.348;2024-01-15T06:57:56;23.07;;;11.23;;
80307;SDS011;69616;43.522;1.348;2024-01-15T07:00:21;21.73;;;10.75;;
80307;SDS011;69616;43.522;1.348;2024-01-15T07:02:46;19.83;;;9.97;;
80307;SDS011;69616;43.522;1.348;2024-01-15T07:05:12;20.37;;;9.97;;
80307;SDS011;69616;43.522;1.348;2024-01-15T07:07:37;21.43;;;9.83;;
80307;SDS011;69616;43.522;1.348;2024-01-15T07:10:03;22.10;;;10.17;;
80307;SDS011;69616;43.522;1.348;2024-01-15T07:12:29;20.20;;;10.00;;
80307;SDS011;69616;43.522;1.348;2024-01-15T07:14:55;20.27;;;10.52;;
80307;SDS011;69616;43.522;1.348;2024-01-15T07:17:21;20.95;;;9.75;;
80307;SDS011;69616;43.522;1.348;2024-01-15T07:19:47;21.17;;;10.33;;
80307;SDS011;69616;43.522;1.348;2024-01-15T07:22:12;17.77;;;9.07;;
80307;SDS011;69616;43.522;1.348;2024-01-15T07:24:38;21.40;;;10.00;;
80307;SDS011;69616;43.522;1.348;2024-01-15T07:27:03;20.47;;;9.90;;
80307;SDS011;69616;43.522;1.348;2024-01-15T07:29:29;21.13;;;11.00;;
80307;SDS011;69616;43.522;1.348;2024-01-15T07:31:55;25.17;;;11.93;;
80307;SDS011;69616;43.522;1.348;2024-01-15T07:34:21;21.97;;;11.60;;
80307;SDS011;69616;43.522;1.348;2024-01-15T07:36:47;23.13;;;11.80;;
80307;SDS011;69616;43.522;1.348;2024-01-15T07:39:12;24.10;;;12.40;;
80307;SDS011;69616;43.522;1.348;2024-01-15T07:41:38;23.00;;;10.88;;
80307;SDS011;69616;43.522;1.348;2024-01-15T07:44:05;23.70;;;12.23;;
80307;SDS011;69616;43.522;1.348;2024-01-15T07:46:30;26.98;;;11.95;;
80307;SDS011;69616;43.522;1.348;2024-01-15T07:48:56;24.30;;;10.77;;
80307;SDS011;69616;43.522;1.348;2024-01-15T07:51:23;24.38;;;11.77;;
80307;SDS011;69616;43.522;1.348;2024-01-15T07:53:48;25.48;;;12.65;;
80307;SDS011;69616;43.522;1.348;2024-01-15T07:56:14;29.20;;;14.80;;
80307;SDS011;69616;43.522;1.348;2024-01-15T07:58:39;28.13;;;14.60;;
80307;SDS011;69616;43.522;1.348;2024-01-15T08:01:04;27.67;;;13.80;;
80307;SDS011;69616;43.522;1.348;2024-01-15T08:03:31;30.88;;;14.85;;
80307;SDS011;69616;43.522;1.348;2024-01-15T08:05:56;32.23;;;16.80;;
80307;SDS011;69616;43.522;1.348;2024-01-15T08:08:24;30.98;;;17.10;;
80307;SDS011;69616;43.522;1.348;2024-01-15T08:10:51;33.47;;;16.23;;
80307;SDS011;69616;43.522;1.348;2024-01-15T08:13:17;31.48;;;15.23;;
80307;SDS011;69616;43.522;1.348;2024-01-15T08:15:42;29.60;;;14.77;;
80307;SDS011;69616;43.522;1.348;2024-01-15T08:18:07;28.43;;;13.53;;
80307;SDS011;69616;43.522;1.348;2024-01-15T08:20:34;28.60;;;13.23;;
80307;SDS011;69616;43.522;1.348;2024-01-15T08:22:59;29.20;;;13.30;;
80307;SDS011;69616;43.522;1.348;2024-01-15T08:25:24;30.67;;;14.80;;
80307;SDS011;69616;43.522;1.348;2024-01-15T08:27:51;30.87;;;14.73;;
80307;SDS011;69616;43.522;1.348;2024-01-15T08:30:16;30.90;;;15.75;;
80307;SDS011;69616;43.522;1.348;2024-01-15T08:32:43;26.60;;;13.85;;
80307;SDS011;69616;43.522;1.348;2024-01-15T08:35:12;27.45;;;13.75;;
80307;SDS011;69616;43.522;1.348;2024-01-15T08:37:38;28.70;;;13.50;;
80307;SDS011;69616;43.522;1.348;2024-01-15T08:40:04;27.13;;;13.48;;
80307;SDS011;69616;43.522;1.348;2024-01-15T08:42:29;27.07;;;13.97;;
80307;SDS011;69616;43.522;1.348;2024-01-15T08:44:55;26.00;;;12.50;;
80307;SDS011;69616;43.522;1.348;2024-01-15T08:47:20;23.90;;;12.00;;
80307;SDS011;69616;43.522;1.348;2024-01-15T08:49:46;23.53;;;11.97;;
80307;SDS011;69616;43.522;1.348;2024-01-15T08:52:11;25.97;;;14.73;;
80307;SDS011;69616;43.522;1.348;2024-01-15T08:54:37;23.73;;;12.25;;
80307;SDS011;69616;43.522;1.348;2024-01-15T08:57:02;21.53;;;12.63;;
80307;SDS011;69616;43.522;1.348;2024-01-15T08:59:28;22.88;;;11.93;;
80307;SDS011;69616;43.522;1.348;2024-01-15T09:01:54;22.57;;;12.07;;
80307;SDS011;69616;43.522;1.348;2024-01-15T09:04:22;20.55;;;11.38;;
80307;SDS011;69616;43.522;1.348;2024-01-15T09:06:48;24.38;;;11.57;;
80307;SDS011;69616;43.522;1.348;2024-01-15T09:09:13;35.53;;;18.80;;
80307;SDS011;69616;43.522;1.348;2024-01-15T09:11:40;31.13;;;18.13;;
80307;SDS011;69616;43.522;1.348;2024-01-15T09:14:05;30.65;;;15.48;;
80307;SDS011;69616;43.522;1.348;2024-01-15T09:16:31;28.37;;;13.60;;
80307;SDS011;69616;43.522;1.348;2024-01-15T09:18:56;21.85;;;11.13;;
80307;SDS011;69616;43.522;1.348;2024-01-15T09:21:22;21.93;;;11.87;;
80307;SDS011;69616;43.522;1.348;2024-01-15T09:23:49;24.75;;;13.07;;
80307;SDS011;69616;43.522;1.348;2024-01-15T09:26:15;26.25;;;13.77;;
80307;SDS011;69616;43.522;1.348;2024-01-15T09:28:40;27.27;;;14.43;;
80307;SDS011;69616;43.522;1.348;2024-01-15T09:31:05;26.70;;;13.17;;
80307;SDS011;69616;43.522;1.348;2024-01-15T09:33:31;25.87;;;13.37;;
80307;SDS011;69616;43.522;1.348;2024-01-15T09:35:56;24.17;;;13.55;;
80307;SDS011;69616;43.522;1.348;2024-01-15T09:38:22;27.57;;;14.00;;
80307;SDS011;69616;43.522;1.348;2024-01-15T09:40:49;26.30;;;13.48;;
80307;SDS011;69616;43.522;1.348;2024-01-15T09:43:14;25.33;;;12.77;;
80307;SDS011;69616;43.522;1.348;2024-01-15T09:45:40;27.02;;;13.48;;
80307;SDS011;69616;43.522;1.348;2024-01-15T09:48:07;24.45;;;12.52;;
80307;SDS011;69616;43.522;1.348;2024-01-15T09:50:32;24.80;;;12.30;;
80307;SDS011;69616;43.522;1.348;2024-01-15T09:52:58;26.90;;;13.90;;
80307;SDS011;69616;43.522;1.348;2024-01-15T09:55:24;29.07;;;13.23;;
80307;SDS011;69616;43.522;1.348;2024-01-15T09:57:50;21.33;;;11.63;;
80307;SDS011;69616;43.522;1.348;2024-01-15T10:00:18;24.33;;;12.10;;
80307;SDS011;69616;43.522;1.348;2024-01-15T10:02:46;23.23;;;12.45;;
80307;SDS011;69616;43.522;1.348;2024-01-15T10:05:11;19.63;;;11.23;;
80307;SDS011;69616;43.522;1.348;2024-01-15T10:07:37;20.67;;;11.23;;
80307;SDS011;69616;43.522;1.348;2024-01-15T10:10:03;23.60;;;11.80;;
80307;SDS011;69616;43.522;1.348;2024-01-15T10:12:28;21.95;;;10.98;;
80307;SDS011;69616;43.522;1.348;2024-01-15T10:14:55;22.80;;;12.17;;
80307;SDS011;69616;43.522;1.348;2024-01-15T10:17:21;21.85;;;10.55;;
80307;SDS011;69616;43.522;1.348;2024-01-15T10:19:47;22.30;;;10.57;;
80307;SDS011;69616;43.522;1.348;2024-01-15T10:22:13;19.63;;;10.52;;
80307;SDS011;69616;43.522;1.348;2024-01-15T10:24:40;20.83;;;11.23;;
80307;SDS011;69616;43.522;1.348;2024-01-15T10:27:06;21.60;;;10.90;;
80307;SDS011;69616;43.522;1.348;2024-01-15T10:29:33;27.30;;;11.90;;
80307;SDS011;69616;43.522;1.348;2024-01-15T10:31:58;25.23;;;12.50;;
80307;SDS011;69616;43.522;1.348;2024-01-15T10:34:24;23.52;;;11.90;;
80307;SDS011;69616;43.522;1.348;2024-01-15T10:36:50;21.33;;;11.70;;
80307;SDS011;69616;43.522;1.348;2024-01-15T10:39:20;19.70;;;10.37;;
80307;SDS011;69616;43.522;1.348;2024-01-15T10:41:46;18.10;;;10.02;;
80307;SDS011;69616;43.522;1.348;2024-01-15T10:44:12;20.73;;;11.07;;
80307;SDS011;69616;43.522;1.348;2024-01-15T10:46:37;21.77;;;11.23;;
80307;SDS011;69616;43.522;1.348;2024-01-15T10:49:04;17.85;;;10.27;;
80307;SDS011;69616;43.522;1.348;2024-01-15T10:51:29;21.53;;;11.80;;
80307;SDS011;69616;43.522;1.348;2024-01-15T10:53:56;18.38;;;11.00;;
80307;SDS011;69616;43.522;1.348;2024-01-15T10:56:22;22.65;;;12.10;;
80307;SDS011;69616;43.522;1.348;2024-01-15T10:58:49;24.63;;;12.10;;
80307;SDS011;69616;43.522;1.348;2024-01-15T11:01:16;20.17;;;11.60;;
80307;SDS011;69616;43.522;1.348;2024-01-15T11:03:42;19.13;;;11.00;;
80307;SDS011;69616;43.522;1.348;2024-01-15T11:06:18;21.95;;;11.75;;
80307;SDS011;69616;43.522;1.348;2024-01-15T11:08:49;20.73;;;11.60;;
80307;SDS011;69616;43.522;1.348;2024-01-15T11:11:18;21.73;;;12.60;;
80307;SDS011;69616;43.522;1.348;2024-01-15T11:13:46;21.37;;;11.37;;
80307;SDS011;69616;43.522;1.348;2024-01-15T11:16:15;20.92;;;10.75;;
80307;SDS011;69616;43.522;1.348;2024-01-15T11:19:02;18.63;;;10.65;;
80307;SDS011;69616;43.522;1.348;2024-01-15T11:21:27;19.85;;;10.40;;
80307;SDS011;69616;43.522;1.348;2024-01-15T11:23:58;19.20;;;10.57;;
80307;SDS011;69616;43.522;1.348;2024-01-15T11:26:29;21.23;;;10.67;;
80307;SDS011;69616;43.522;1.348;2024-01-15T11:29:10;21.23;;;11.35;;
80307;SDS011;69616;43.522;1.348;2024-01-15T11:31:59;21.17;;;11.00;;
80307;SDS011;69616;43.522;1.348;2024-01-15T11:37:15;22.27;;;9.85;;
80307;SDS011;69616;43.522;1.348;2024-01-15T11:39:42;18.20;;;9.37;;
80307;SDS011;69616;43.522;1.348;2024-01-15T11:42:09;17.48;;;8.80;;
80307;SDS011;69616;43.522;1.348;2024-01-15T11:44:36;18.23;;;8.30;;
80307;SDS011;69616;43.522;1.348;2024-01-15T11:47:03;16.13;;;8.93;;
80307;SDS011;69616;43.522;1.348;2024-01-15T11:52:25;15.25;;;8.20;;
80307;SDS011;69616;43.522;1.348;2024-01-15T11:57:51;14.83;;;7.60;;
80307;SDS011;69616;43.522;1.348;2024-01-15T12:00:19;15.32;;;7.60;;
80307;SDS011;69616;43.522;1.348;2024-01-15T12:02:46;15.25;;;7.60;;
80307;SDS011;69616;43.522;1.348;2024-01-15T12:05:13;14.25;;;7.40;;
80307;SDS011;69616;43.522;1.348;2024-01-15T12:07:42;17.83;;;7.90;;
80307;SDS011;69616;43.522;1.348;2024-01-15T12:10:11;20.53;;;10.07;;
80307;SDS011;69616;43.522;1.348;2024-01-15T12:15:27;18.55;;;8.50;;
80307;SDS011;69616;43.522;1.348;2024-01-15T12:17:55;15.70;;;8.52;;
80307;SDS011;69616;43.522;1.348;2024-01-15T12:20:22;23.40;;;9.43;;
80307;SDS011;69616;43.522;1.348;2024-01-15T12:22:49;16.87;;;9.13;;
80307;SDS011;69616;43.522;1.348;2024-01-15T12:25:14;22.08;;;9.68;;
80307;SDS011;69616;43.522;1.348;2024-01-15T12:27:40;19.23;;;8.87;;
80307;SDS011;69616;43.522;1.348;2024-01-15T12:30:05;15.43;;;9.48;;
80307;SDS011;69616;43.522;1.348;2024-01-15T12:32:32;14.93;;;9.50;;
80307;SDS011;69616;43.522;1.348;2024-01-15T12:34:57;16.25;;;9.18;;
80307;SDS011;69616;43.522;1.348;2024-01-15T12:37:23;17.30;;;8.97;;
80307;SDS011;69616;43.522;1.348;2024-01-15T12:39:51;18.25;;;9.27;;
80307;SDS011;69616;43.522;1.348;2024-01-15T12:42:17;18.55;;;9.50;;
80307;SDS011;69616;43.522;1.348;2024-01-15T12:44:43;20.07;;;10.27;;
80307;SDS011;69616;43.522;1.348;2024-01-15T12:47:10;18.67;;;9.65;;
80307;SDS011;69616;43.522;1.348;2024-01-15T12:49:36;18.87;;;10.77;;
80307;SDS011;69616;43.522;1.348;2024-01-15T12:52:02;20.33;;;11.30;;
80307;SDS011;69616;43.522;1.348;2024-01-15T12:54:28;19.88;;;11.00;;
80307;SDS011;69616;43.522;1.348;2024-01-15T12:56:53;19.47;;;10.37;;
80307;SDS011;69616;43.522;1.348;2024-01-15T12:59:19;19.97;;;10.07;;
80307;SDS011;69616;43.522;1.348;2024-01-15T13:01:45;19.33;;;10.50;;
80307;SDS011;69616;43.522;1.348;2024-01-15T13:04:11;22.27;;;11.65;;
80307;SDS011;69616;43.522;1.348;2024-01-15T13:06:37;24.27;;;12.45;;
80307;SDS011;69616;43.522;1.348;2024-01-15T13:09:05;22.17;;;12.30;;
80307;SDS011;69616;43.522;1.348;2024-01-15T13:11:31;24.77;;;12.60;;
80307;SDS011;69616;43.522;1.348;2024-01-15T13:13:57;25.38;;;13.25;;
80307;SDS011;69616;43.522;1.348;2024-01-15T13:16:23;22.53;;;12.50;;
80307;SDS011;69616;43.522;1.348;2024-01-15T13:18:48;24.37;;;12.67;;
80307;SDS011;69616;43.522;1.348;2024-01-15T13:21:15;26.90;;;12.23;;
80307;SDS011;69616;43.522;1.348;2024-01-15T13:23:40;29.13;;;13.45;;
80307;SDS011;69616;43.522;1.348;2024-01-15T13:26:06;24.80;;;12.50;;
80307;SDS011;69616;43.522;1.348;2024-01-15T13:28:32;22.90;;;12.05;;
80307;SDS011;69616;43.522;1.348;2024-01-15T13:30:57;22.60;;;12.00;;
80307;SDS011;69616;43.522;1.348;2024-01-15T13:33:23;22.97;;;12.83;;
80307;SDS011;69616;43.522;1.348;2024-01-15T13:35:51;21.80;;;11.05;;
80307;SDS011;69616;43.522;1.348;2024-01-15T13:38:16;19.02;;;10.35;;
80307;SDS011;69616;43.522;1.348;2024-01-15T13:40:43;20.97;;;10.97;;
80307;SDS011;69616;43.522;1.348;2024-01-15T13:43:10;20.45;;;10.80;;
80307;SDS011;69616;43.522;1.348;2024-01-15T13:45:36;23.73;;;11.82;;
80307;SDS011;69616;43.522;1.348;2024-01-15T13:48:02;27.58;;;14.70;;
80307;SDS011;69616;43.522;1.348;2024-01-15T13:50:31;27.20;;;13.77;;
80307;SDS011;69616;43.522;1.348;2024-01-15T13:52:56;38.70;;;16.23;;
80307;SDS011;69616;43.522;1.348;2024-01-15T13:55:22;31.60;;;15.50;;
80307;SDS011;69616;43.522;1.348;2024-01-15T13:57:48;31.23;;;14.53;;
80307;SDS011;69616;43.522;1.348;2024-01-15T14:00:13;31.00;;;15.02;;
80307;SDS011;69616;43.522;1.348;2024-01-15T14:02:43;36.28;;;17.15;;
80307;SDS011;69616;43.522;1.348;2024-01-15T14:05:09;25.73;;;14.13;;
80307;SDS011;69616;43.522;1.348;2024-01-15T14:07:37;29.40;;;14.10;;
80307;SDS011;69616;43.522;1.348;2024-01-15T14:10:04;24.55;;;12.23;;
80307;SDS011;69616;43.522;1.348;2024-01-15T14:12:30;23.80;;;11.48;;
80307;SDS011;69616;43.522;1.348;2024-01-15T14:14:55;28.03;;;14.07;;
80307;SDS011;69616;43.522;1.348;2024-01-15T14:17:21;24.50;;;13.67;;
80307;SDS011;69616;43.522;1.348;2024-01-15T14:19:46;23.53;;;13.27;;
80307;SDS011;69616;43.522;1.348;2024-01-15T14:22:12;23.35;;;12.77;;
80307;SDS011;69616;43.522;1.348;2024-01-15T14:24:37;20.70;;;11.30;;
80307;SDS011;69616;43.522;1.348;2024-01-15T14:27:03;18.35;;;9.50;;
80307;SDS011;69616;43.522;1.348;2024-01-15T14:29:30;18.53;;;8.10;;
80307;SDS011;69616;43.522;1.348;2024-01-15T14:31:55;16.02;;;7.35;;
80307;SDS011;69616;43.522;1.348;2024-01-15T14:34:21;11.00;;;5.83;;